Hershey, NE (69143)

11:27 PM CDT on September 03, 2015 (GMT -0500)
Hershey Northeast | | Change Station
CLOSE
Current Station
Personal Weather Station
Location: North Platte, NE
Elevation: 2867 ft
Nearby Weather Stations

Elev 2867 ft 41.21 °N, 100.93 °W | Updated 2 minutes ago

Rain
Rain
76.5 °F
Feels Like 78 °F
N
2.0
Wind Variable Wind from South
Gusts 5.0 mph

Today
High -- | Low -- °F
--% Chance of Precip.
Yesterday
High -- | Low -- °F
Precip. -- in
7:12 AM 8:13 PM
Waning Gibbous, 63% visible
Pressure 29.69 in
Visibility 10.0 miles
Clouds Clear
Heat Index 78 °F
Dew Point 65 °F
Humidity 67%
Rainfall 0.00 in
Snow Depth Not available.
UV 0 out of 12
Pollen 10.70 out of 12
Air Quality Not available.
Flu Activity Not available.
METAR KLBF 040353Z AUTO 11007KT 10SM CLR 26/17 A2978 RMK AO2 SLP052 T02560172
Pressure 29.69 in
Visibility 10.0 miles
Clouds Clear
Heat Index 78 °F
Dew Point 65 °F
Humidity 67%
Rainfall 0.00 in
Snow Depth Not available.
UV 0 out of 12
Pollen 10.70 out of 12
Air Quality Not available.
Flu Activity Not available.
METAR KLBF 040353Z AUTO 11007KT 10SM CLR 26/17 A2978 RMK AO2 SLP052 T02560172

10-Day Weather Forecast

×

Almanac

Astronomy

Sep. 03, 2015 Rise Set
Actual Time
Civil Twilight
Nautical Twilight
Astronomical Twilight
Moon
Length of Visible Light
Length of Day
Tomorrow will be .
, % of the Moon is Illuminated

Today's Extremes

State Highs State Lows

Community

WunderPhotos

Upload Photos

1,852,128 photos uploaded!

WunderBlogs® & News

Nearby

Air Quality

  Air Quality AQ Index Pollutant
Not available.

Snow Depth

Station Depth Elevation

Earthquake Activity

City Distance Mag. Time & Date
Minimum magnitude displayed is 2.5.

Coastal Water Temperatures

Place Temperature

Stations

Nearby Weather Stations

Station Location Temp. Windchill Dew Point Humidity Wind Precip. Elev Updated Type